Time;durP1;ratioP1;P1;durP2;ratioP2;P2;SDS_P1;SDS_P2;PMS_P1;PMS_P2;Temp;Humidity;BMP_temperature;BMP_pressure;BME280_temperature;BME280_humidity;BME280_pressure;Samples;Min_cycle;Max_cycle;Signal;HPM_P1;HPM_P2
2021/07/21 00:00:30;;;;;;;0.40;0.40;;;;;;;16.16;66.64;97324.47;29395;252;63009;-62
2021/07/21 00:01:02;;;;;;;0.40;0.40;;;;;;;16.16;66.85;97317.06;29394;208;64009;-68
2021/07/21 00:01:35;;;;;;;0.40;0.40;;;;;;;16.15;67.49;97325.56;29395;260;63009;-66
2021/07/21 00:02:06;;;;;;;0.40;0.40;;;;;;;16.15;67.87;97322.84;29395;202;63004;-66
2021/07/21 00:02:39;;;;;;;0.40;0.40;;;;;;;16.14;66.63;97323.97;29395;225;63009;-65
2021/07/21 00:03:10;;;;;;;0.40;0.40;;;;;;;16.15;66.97;97325.56;29395;213;63004;-65
2021/07/21 00:03:41;;;;;;;0.40;0.40;;;;;;;16.14;66.93;97319.28;29395;205;63009;-66
2021/07/21 00:04:13;;;;;;;0.40;0.40;;;;;;;16.15;66.94;97329.12;29395;214;63005;-61
2021/07/21 00:04:45;;;;;;;0.50;0.50;;;;;;;16.16;67.32;97324.47;29395;204;63009;-67
2021/07/21 00:05:19;;;;;;;0.40;0.40;;;;;;;16.15;67.48;97325.56;29395;212;63009;-66
2021/07/21 00:05:51;;;;;;;0.40;0.40;;;;;;;16.15;67.16;97322.84;29394;243;64013;-66
2021/07/21 00:06:24;;;;;;;0.47;0.47;;;;;;;16.15;67.05;97325.56;29395;218;63005;-66
2021/07/21 00:06:55;;;;;;;0.40;0.40;;;;;;;16.16;67.19;97325.25;29395;223;63009;-66
2021/07/21 00:07:27;;;;;;;0.40;0.40;;;;;;;16.18;66.98;97322.22;29395;253;63005;-66
2021/07/21 00:07:58;;;;;;;0.50;0.50;;;;;;;16.18;66.84;97319.47;29395;335;63009;-66
2021/07/21 00:08:30;;;;;;;0.40;0.40;;;;;;;16.17;67.00;97323.34;29395;343;63004;-66
2021/07/21 00:09:03;;;;;;;0.40;0.40;;;;;;;16.15;67.27;97320.09;29395;202;63009;-66
2021/07/21 00:09:34;;;;;;;0.50;0.50;;;;;;;16.11;67.01;97324.59;29395;314;63004;-66
2021/07/21 00:10:09;;;;;;;0.40;0.40;;;;;;;16.08;67.02;97326.03;29395;283;63009;-67
2021/07/21 00:10:41;;;;;;;0.50;0.50;;;;;;;16.04;66.95;97320.38;29394;271;64023;-66
2021/07/21 00:13:44;;;;;;;0.40;0.40;;;;;;;16.02;67.50;97317.16;29438;247;64005;-62
2021/07/21 00:14:20;;;;;;;0.40;0.40;;;;;;;16.03;67.69;97318.78;29395;274;63009;-65
2021/07/21 00:14:51;;;;;;;0.40;0.40;;;;;;;16.00;67.19;97318.59;29395;206;63005;-66
2021/07/21 00:15:25;;;;;;;0.40;0.40;;;;;;;15.98;67.80;97320.84;29394;276;64013;-66
2021/07/21 00:16:17;;;;;;;0.40;0.40;;;;;;;15.96;68.32;97318.44;29395;202;63004;-66
2021/07/21 00:16:53;;;;;;;0.40;0.40;;;;;;;15.96;67.28;97323.91;29395;214;63009;-68
2021/07/21 00:17:31;;;;;;;0.40;0.40;;;;;;;15.97;66.98;97322.78;29394;218;64009;-67
2021/07/21 00:18:21;;;;;;;0.40;0.40;;;;;;;16.00;67.07;97324.88;29395;228;63008;-66
2021/07/21 00:18:57;;;;;;;0.50;0.50;;;;;;;16.01;66.92;97321.03;29395;235;63005;-67
2021/07/21 00:20:17;;;;;;;0.45;0.45;;;;;;;16.03;67.21;97318.78;29395;226;63005;-66
2021/07/21 00:20:49;;;;;;;0.40;0.40;;;;;;;16.05;67.12;97324.75;29395;268;63009;-67
2021/07/21 00:21:24;;;;;;;0.40;0.40;;;;;;;16.07;67.11;97318.94;29395;234;63005;-66
2021/07/21 00:21:56;;;;;;;0.40;0.40;;;;;;;16.05;67.37;97316.53;29395;222;63009;-66
2021/07/21 00:22:27;;;;;;;0.40;0.40;;;;;;;16.02;68.52;97317.16;29394;197;64022;-66
2021/07/21 00:22:59;;;;;;;0.40;0.40;;;;;;;15.99;68.38;97317.78;29395;203;63009;-66
2021/07/21 00:23:31;;;;;;;0.40;0.40;;;;;;;15.97;67.99;97320.03;29395;291;63004;-67
2021/07/21 00:24:03;;;;;;;0.40;0.40;;;;;;;15.94;67.55;97315.19;29395;405;63024;-66
2021/07/21 00:24:34;;;;;;;1.15;1.15;;;;;;;15.94;67.68;97312.47;29395;280;63004;-66
2021/07/21 00:25:08;;;;;;;0.40;0.40;;;;;;;15.94;68.07;97309.72;29395;241;63009;-66
2021/07/21 00:25:39;;;;;;;0.40;0.40;;;;;;;15.93;67.67;97319.09;29395;263;63004;-66
2021/07/21 00:26:10;;;;;;;0.40;0.40;;;;;;;15.93;67.88;97313.62;29395;218;63008;-65
2021/07/21 00:26:44;;;;;;;0.47;0.47;;;;;;;15.92;67.66;97320.22;29395;280;63005;-65
2021/07/21 00:27:15;;;;;;;0.40;0.40;;;;;;;15.92;67.08;97314.75;29395;220;63019;-68
2021/07/21 00:27:47;;;;;;;0.40;0.40;;;;;;;15.91;67.20;97315.84;29394;232;64009;-66
2021/07/21 00:28:19;;;;;;;0.40;0.40;;;;;;;15.88;66.93;97311.03;29395;294;63009;-67
2021/07/21 00:28:50;;;;;;;0.40;0.40;;;;;;;15.84;66.92;97310.03;29395;245;63005;-65
2021/07/21 00:29:21;;;;;;;0.40;0.40;;;;;;;15.84;67.29;97314.69;29395;202;63009;-66
2021/07/21 00:29:53;;;;;;;0.47;0.47;;;;;;;15.82;67.83;97315.00;29395;210;63005;-67
2021/07/21 00:30:24;;;;;;;0.40;0.40;;;;;;;15.81;67.60;97310.66;29395;205;63009;-66
2021/07/21 00:30:55;;;;;;;0.40;0.40;;;;;;;15.81;67.61;97313.41;29395;216;63004;-67
2021/07/21 00:31:27;;;;;;;0.40;0.40;;;;;;;15.82;68.46;97306.00;29395;209;63009;-66
2021/07/21 00:31:58;;;;;;;0.40;0.40;;;;;;;15.79;68.49;97312.09;29395;284;63004;-61
2021/07/21 00:32:29;;;;;;;0.40;0.40;;;;;;;15.80;67.85;97308.25;29394;243;64013;-66
2021/07/21 00:33:01;;;;;;;0.40;0.40;;;;;;;15.78;67.88;97311.28;29395;209;63004;-67
2021/07/21 00:33:32;;;;;;;0.50;0.50;;;;;;;15.80;67.90;97311.78;29395;267;63008;-66
2021/07/21 00:34:03;;;;;;;0.40;0.40;;;;;;;15.81;67.67;97307.94;29395;218;63005;-67
2021/07/21 00:34:35;;;;;;;0.40;0.40;;;;;;;15.82;67.87;97306.81;29395;216;63026;-66
2021/07/21 00:35:13;;;;;;;0.40;0.40;;;;;;;15.85;68.03;97302.63;29395;212;63005;-67
2021/07/21 00:35:45;;;;;;;0.40;0.40;;;;;;;15.84;68.35;97304.56;29395;244;63023;-67
2021/07/21 00:36:16;;;;;;;0.40;0.40;;;;;;;15.81;69.44;97305.19;29395;241;63005;-66
2021/07/21 00:36:47;;;;;;;0.40;0.40;;;;;;;15.80;69.36;97302.78;29395;203;63009;-66
2021/07/21 00:37:18;;;;;;;0.40;0.40;;;;;;;15.74;68.65;97300.16;29395;244;63005;-67
2021/07/21 00:37:49;;;;;;;0.50;0.50;;;;;;;15.73;68.58;97304.03;29394;218;64013;-63
2021/07/21 00:38:20;;;;;;;0.40;0.40;;;;;;;15.74;68.40;97304.84;29395;306;63004;-67
2021/07/21 00:38:51;;;;;;;0.50;0.50;;;;;;;15.75;67.93;97303.72;29395;245;63009;-65
2021/07/21 00:39:23;;;;;;;0.40;0.40;;;;;;;15.74;68.43;97304.84;29395;196;63004;-66
2021/07/21 00:39:54;;;;;;;0.40;0.40;;;;;;;15.72;68.83;97301.59;29395;242;63009;-67
2021/07/21 00:40:25;;;;;;;0.40;0.40;;;;;;;15.68;68.25;97300.63;29395;337;63004;-67
2021/07/21 00:40:57;;;;;;;0.60;0.60;;;;;;;15.70;68.18;97303.84;29395;197;63008;-66
2021/07/21 00:41:28;;;;;;;0.40;0.40;;;;;;;15.71;68.01;97302.72;29395;198;63005;-65
2021/07/21 00:41:59;;;;;;;0.35;0.35;;;;;;;15.69;68.57;97308.50;29395;364;63009;-65
2021/07/21 00:42:30;;;;;;;0.40;0.40;;;;;;;15.69;68.32;97302.25;29395;327;63005;-67
2021/07/21 00:43:02;;;;;;;0.40;0.40;;;;;;;15.69;67.93;97302.25;29394;328;64014;-66
2021/07/21 00:43:33;;;;;;;0.95;0.95;;;;;;;15.70;68.12;97298.38;29395;333;63005;-66
2021/07/21 00:44:04;;;;;;;0.40;0.40;;;;;;;15.70;68.28;97301.91;29395;212;63009;-66
2021/07/21 00:44:35;;;;;;;0.40;0.40;;;;;;;15.69;68.31;97307.72;29395;209;63005;-67
2021/07/21 00:45:09;;;;;;;0.40;0.40;;;;;;;15.66;68.36;97297.41;29395;227;63009;-68
2021/07/21 00:45:41;;;;;;;0.50;0.50;;;;;;;15.64;68.17;97291.44;29395;328;63004;-66
2021/07/21 00:46:12;;;;;;;0.43;0.43;;;;;;;15.63;67.91;97298.03;29395;218;63009;-66
2021/07/21 00:46:43;;;;;;;0.50;0.50;;;;;;;15.64;68.00;97299.62;29395;197;63004;-67
2021/07/21 00:47:14;;;;;;;0.47;0.47;;;;;;;15.64;67.67;97299.62;29395;208;63009;-66
2021/07/21 00:47:46;;;;;;;0.40;0.40;;;;;;;15.63;67.62;97292.56;29395;215;63004;-68
2021/07/21 00:48:17;;;;;;;0.47;0.47;;;;;;;15.64;67.76;97300.44;29394;190;64014;-66
2021/07/21 00:48:48;;;;;;;0.40;0.40;;;;;;;15.64;67.79;97299.62;29395;254;63005;-67
2021/07/21 00:49:24;;;;;;;0.50;0.50;;;;;;;15.64;67.74;97294.16;29395;206;63009;-66
2021/07/21 00:49:56;;;;;;;0.50;0.50;;;;;;;15.62;68.22;97296.41;29395;219;63005;-67
2021/07/21 00:50:28;;;;;;;0.43;0.43;;;;;;;15.60;67.95;97293.19;29395;221;63009;-66
2021/07/21 00:50:59;;;;;;;0.50;0.50;;;;;;;15.57;68.05;97291.09;29395;196;63005;-66
2021/07/21 00:51:31;;;;;;;0.40;0.40;;;;;;;15.54;67.96;97300.72;29395;199;63009;-67
2021/07/21 00:52:04;;;;;;;0.50;0.50;;;;;;;15.54;67.79;97305.38;29395;243;63005;-67
2021/07/21 00:52:41;;;;;;;0.50;0.50;;;;;;;15.54;68.29;97295.25;29395;196;63009;-66
2021/07/21 00:53:12;;;;;;;0.40;0.40;;;;;;;15.52;68.47;97293.94;29395;267;63004;-67
2021/07/21 00:53:45;;;;;;;0.50;0.50;;;;;;;15.49;68.81;97294.56;29394;224;64006;-65
2021/07/21 00:54:16;;;;;;;0.50;0.50;;;;;;;15.46;68.63;97297.94;29395;319;63011;-67
2021/07/21 00:54:49;;;;;;;0.40;0.40;;;;;;;15.46;68.05;97297.94;29395;198;63009;-66
2021/07/21 00:55:20;;;;;;;0.47;0.47;;;;;;;15.47;68.29;97294.06;29395;242;63004;-62
2021/07/21 00:55:52;;;;;;;0.50;0.50;;;;;;;15.47;68.53;97294.06;29395;203;63009;-67
2021/07/21 00:56:24;;;;;;;0.50;0.50;;;;;;;15.41;68.12;97291.47;29395;257;63005;-66
2021/07/21 00:56:57;;;;;;;0.50;0.50;;;;;;;15.38;68.59;97292.09;29395;219;63023;-66
2021/07/21 00:57:28;;;;;;;0.40;0.40;;;;;;;15.36;68.66;97299.81;29395;223;63005;-67
2021/07/21 00:58:01;;;;;;;0.40;0.40;;;;;;;15.34;68.40;97293.84;29395;309;63009;-66
2021/07/21 00:58:32;;;;;;;0.47;0.47;;;;;;;15.34;68.37;97293.84;29394;300;64009;-67
2021/07/21 00:59:04;;;;;;;0.50;0.50;;;;;;;15.35;68.52;97300.12;29395;268;63009;-66
2021/07/21 00:59:35;;;;;;;0.50;0.50;;;;;;;15.36;68.46;97294.34;29395;241;63005;-67
2021/07/21 01:00:10;;;;;;;0.50;0.50;;;;;;;15.37;68.42;97300.59;29395;203;63009;-67
2021/07/21 01:00:41;;;;;;;0.40;0.40;;;;;;;15.36;68.43;97301.72;29395;227;63004;-67
2021/07/21 01:01:12;;;;;;;0.40;0.40;;;;;;;15.35;68.47;97298.19;29395;208;63009;-62
2021/07/21 01:01:44;;;;;;;0.50;0.50;;;;;;;15.34;68.48;97293.84;29395;202;63004;-66
2021/07/21 01:02:16;;;;;;;0.43;0.43;;;;;;;15.35;68.00;97286.44;29395;218;63015;-66
2021/07/21 01:02:48;;;;;;;0.40;0.40;;;;;;;15.37;68.41;97298.69;29395;221;63014;-67
2021/07/21 01:03:19;;;;;;;0.50;0.50;;;;;;;15.38;68.09;97291.28;29395;225;63009;-66
2021/07/21 01:03:51;;;;;;;0.43;0.43;;;;;;;15.36;67.83;97291.59;29394;215;64009;-67
2021/07/21 01:04:22;;;;;;;0.50;0.50;;;;;;;15.36;67.84;97288.88;29395;262;63009;-68
2021/07/21 01:04:54;;;;;;;0.50;0.50;;;;;;;15.38;67.99;97294.81;29395;199;63005;-67
2021/07/21 01:05:31;;;;;;;0.50;0.50;;;;;;;15.40;68.00;97295.31;29395;238;63009;-66
2021/07/21 01:06:04;;;;;;;0.50;0.50;;;;;;;15.39;68.16;97298.38;29395;223;63018;-66
2021/07/21 01:06:37;;;;;;;0.50;0.50;;;;;;;15.37;68.40;97295.94;29395;242;63016;-65
2021/07/21 01:07:09;;;;;;;0.47;0.47;;;;;;;15.36;68.23;97293.53;29395;243;63005;-67
2021/07/21 01:07:43;;;;;;;0.40;0.40;;;;;;;15.36;68.39;97297.06;29395;230;63025;-66
2021/07/21 01:08:15;;;;;;;0.50;0.50;;;;;;;15.36;68.30;97294.34;29395;208;63004;-63
2021/07/21 01:08:49;;;;;;;0.50;0.50;;;;;;;15.37;68.17;97290.47;29395;246;63009;-63
2021/07/21 01:09:21;;;;;;;0.50;0.50;;;;;;;15.36;68.70;97299.00;29394;271;64009;-67
2021/07/21 01:09:53;;;;;;;0.45;0.45;;;;;;;15.35;68.51;97289.97;29395;225;63022;-63
2021/07/21 01:10:25;;;;;;;0.50;0.50;;;;;;;15.35;68.20;97295.44;29395;202;63004;-66
2021/07/21 01:11:15;;;;;;;0.50;0.50;;;;;;;15.35;68.77;97291.91;29395;214;63009;-66
2021/07/21 01:12:12;;;;;;;0.45;0.45;;;;;;;15.30;69.48;97300.25;29395;230;63005;-67
2021/07/21 01:13:12;;;;;;;0.40;0.40;;;;;;;15.25;69.14;97300.38;29395;211;63009;-66
2021/07/21 01:14:17;;;;;;;0.50;0.50;;;;;;;15.24;69.10;97302.31;29395;233;63005;-67
2021/07/21 01:15:19;;;;;;;0.50;0.50;;;;;;;15.23;68.74;97308.91;29394;197;64013;-67
2021/07/21 01:16:00;;;;;;;0.50;0.50;;;;;;;15.24;68.77;97302.31;29417;247;63004;-66
2021/07/21 01:16:36;;;;;;;;;;;;;;;15.24;68.45;97296.84;29996;983;6004;-66
2021/07/21 01:17:15;;;;;;;0.50;0.50;;;;;;;15.24;68.54;97296.84;29400;237;63009;-65
2021/07/21 01:18:04;;;;;;;0.50;0.50;;;;;;;15.24;68.59;97296.84;29395;215;63004;-66
2021/07/21 01:18:43;;;;;;;0.50;0.50;;;;;;;15.24;68.91;97285.94;29395;197;63009;-65
2021/07/21 01:19:58;;;;;;;0.40;0.40;;;;;;;15.21;69.41;97293.94;29395;227;63005;-67
2021/07/21 01:21:17;;;;;;;0.50;0.50;;;;;;;15.22;69.26;97298.28;29395;211;64013;-66
2021/07/21 01:22:18;;;;;;;0.50;0.50;;;;;;;15.16;69.53;97294.87;29396;216;63005;-66
2021/07/21 01:23:02;;;;;;;0.50;0.50;;;;;;;15.13;69.60;97295.50;29396;224;63009;-66
2021/07/21 01:24:14;;;;;;;0.50;0.50;;;;;;;15.13;69.07;97295.50;29396;208;63018;-66
2021/07/21 01:25:26;;;;;;;0.50;0.50;;;;;;;15.13;69.46;97295.50;29396;214;63009;-65
2021/07/21 01:26:15;;;;;;;0.50;0.50;;;;;;;15.05;70.01;97291.59;29417;204;64014;-66
2021/07/21 01:27:10;;;;;;;0.50;0.50;;;;;;;14.97;70.03;97296.97;29396;202;63005;-68
2021/07/21 01:27:53;;;;;;;0.50;0.50;;;;;;;14.94;70.34;97289.41;29396;265;63010;-66
2021/07/21 01:28:28;;;;;;;0.60;0.60;;;;;;;14.94;69.76;97292.94;29396;209;63005;-67
2021/07/21 01:29:01;;;;;;;0.50;0.50;;;;;;;14.96;70.23;97295.37;29396;242;63009;-67
2021/07/21 01:29:34;;;;;;;0.40;0.40;;;;;;;14.99;69.69;97289.28;29396;212;63017;-66
2021/07/21 01:30:16;;;;;;;0.40;0.40;;;;;;;15.01;69.74;97284.31;29396;216;63009;-66
2021/07/21 01:30:49;;;;;;;0.50;0.50;;;;;;;15.02;69.83;97289.47;29395;261;64009;-66
2021/07/21 01:31:38;;;;;;;0.50;0.50;;;;;;;15.04;69.67;97286.44;29396;245;63009;-66
2021/07/21 01:32:11;;;;;;;0.50;0.50;;;;;;;15.06;69.52;97289.66;29396;214;63004;-67
2021/07/21 01:32:53;;;;;;;0.50;0.50;;;;;;;15.06;69.78;97285.00;29396;209;63008;-67
2021/07/21 01:33:27;;;;;;;0.50;0.50;;;;;;;15.07;69.33;97286.63;29396;239;63004;-66
2021/07/21 01:34:01;;;;;;;0.50;0.50;;;;;;;15.08;69.21;97292.88;29396;203;63009;-66
2021/07/21 01:34:33;;;;;;;0.50;0.50;;;;;;;15.09;69.17;97294.50;29396;268;63005;-65
2021/07/21 01:35:11;;;;;;;0.50;0.50;;;;;;;15.09;69.41;97295.31;29396;220;63009;-66
2021/07/21 01:35:51;;;;;;;0.47;0.47;;;;;;;15.09;69.74;97298.03;29396;246;63005;-62
2021/07/21 01:36:37;;;;;;;0.50;0.50;;;;;;;15.04;69.80;97289.97;29395;219;64005;-67
2021/07/21 01:37:09;;;;;;;0.40;0.40;;;;;;;15.01;70.01;97287.06;29396;248;63005;-67
2021/07/21 01:37:48;;;;;;;0.40;0.40;;;;;;;14.97;70.11;97286.84;29396;225;63009;-67
2021/07/21 01:38:33;;;;;;;0.50;0.50;;;;;;;14.98;69.94;97287.66;29396;220;63004;-66
2021/07/21 01:39:09;;;;;;;0.50;0.50;;;;;;;14.99;70.34;97292.00;29396;216;63009;-66
2021/07/21 01:39:44;;;;;;;0.50;0.50;;;;;;;14.99;69.71;97283.81;29396;211;63004;-65
2021/07/21 01:40:21;;;;;;;0.50;0.50;;;;;;;15.00;69.82;97285.44;29396;208;63008;-66
2021/07/21 01:40:57;;;;;;;0.50;0.50;;;;;;;15.02;69.92;97288.66;29396;234;63004;-66
2021/07/21 01:41:35;;;;;;;0.50;0.50;;;;;;;15.02;69.98;97288.66;29395;212;64014;-67
2021/07/21 01:42:13;;;;;;;0.40;0.40;;;;;;;15.02;69.65;97294.13;29396;233;63005;-66
2021/07/21 01:42:47;;;;;;;0.50;0.50;;;;;;;15.03;70.08;97290.28;29396;199;63009;-67
2021/07/21 01:43:22;;;;;;;0.43;0.43;;;;;;;15.04;69.91;97291.91;29396;221;63005;-66
2021/07/21 01:44:07;;;;;;;0.50;0.50;;;;;;;15.01;70.31;97287.06;29396;316;63009;-65
2021/07/21 01:44:43;;;;;;;0.50;0.50;;;;;;;14.99;70.95;97294.75;29396;259;63004;-63
2021/07/21 01:45:14;;;;;;;0.50;0.50;;;;;;;14.99;70.66;97281.09;29396;225;63009;-67
2021/07/21 01:45:47;;;;;;;0.40;0.40;;;;;;;14.98;70.42;97293.13;29396;231;63004;-67
2021/07/21 01:46:23;;;;;;;0.50;0.50;;;;;;;14.98;70.71;97290.41;29396;208;63009;-67
2021/07/21 01:46:58;;;;;;;0.50;0.50;;;;;;;14.96;70.92;97285.25;29395;301;64008;-65
2021/07/21 01:47:33;;;;;;;0.50;0.50;;;;;;;14.95;70.86;97291.03;29396;232;63008;-66
2021/07/21 01:48:09;;;;;;;0.50;0.50;;;;;;;14.92;71.14;97288.91;29396;201;63004;-66
2021/07/21 01:48:43;;;;;;;0.50;0.50;;;;;;;14.92;71.00;97288.91;29396;224;63009;-62
2021/07/21 01:49:17;;;;;;;0.50;0.50;;;;;;;14.91;70.93;97281.81;29396;228;63005;-67
2021/07/21 01:49:53;;;;;;;0.50;0.50;;;;;;;14.89;70.88;97284.09;29396;219;63009;-67
2021/07/21 01:50:26;;;;;;;0.50;0.50;;;;;;;14.91;70.97;97287.28;29396;227;63005;-66
2021/07/21 01:50:59;;;;;;;0.50;0.50;;;;;;;14.90;70.84;97288.44;29396;253;63009;-66
2021/07/21 01:51:33;;;;;;;0.50;0.50;;;;;;;14.90;70.69;97285.72;29396;232;63005;-63
2021/07/21 01:52:14;;;;;;;0.50;0.50;;;;;;;14.91;70.72;97284.56;29395;241;64013;-64
2021/07/21 01:52:48;;;;;;;0.50;0.50;;;;;;;14.91;70.37;97284.56;29396;226;63004;-66
2021/07/21 01:53:21;;;;;;;0.50;0.50;;;;;;;14.91;70.31;97290.84;29396;196;63009;-66
2021/07/21 01:53:56;;;;;;;0.50;0.50;;;;;;;14.91;70.94;97287.28;29396;246;63004;-65
2021/07/21 01:54:29;;;;;;;0.50;0.50;;;;;;;14.90;70.92;97291.19;29396;211;63024;-66
2021/07/21 01:55:04;;;;;;;0.40;0.40;;;;;;;14.89;70.93;97290.38;29396;269;63004;-66
2021/07/21 01:55:38;;;;;;;0.50;0.50;;;;;;;14.90;70.60;97285.72;29396;243;63009;-66
2021/07/21 01:56:11;;;;;;;0.50;0.50;;;;;;;14.92;70.44;97286.19;29396;204;63005;-66
2021/07/21 01:56:44;;;;;;;0.50;0.50;;;;;;;14.91;70.64;97277.16;29396;212;63009;-63
2021/07/21 01:57:17;;;;;;;0.50;0.50;;;;;;;14.91;71.06;97281.81;29395;265;64009;-63
2021/07/21 01:57:50;;;;;;;0.50;0.50;;;;;;;14.89;70.59;97273.97;29396;277;63014;-67
2021/07/21 01:58:25;;;;;;;0.50;0.50;;;;;;;14.91;70.83;97279.09;29396;233;63005;-65
2021/07/21 01:58:58;;;;;;;0.50;0.50;;;;;;;14.90;70.59;97286.47;29396;196;63014;-66
2021/07/21 01:59:30;;;;;;;0.50;0.50;;;;;;;14.90;70.87;97288.44;29396;223;63004;-65
2021/07/21 02:00:09;;;;;;;0.50;0.50;;;;;;;14.89;70.93;97284.91;29396;202;63009;-66
2021/07/21 02:00:41;;;;;;;0.50;0.50;;;;;;;14.90;70.53;97291.19;29396;216;63004;-66
2021/07/21 02:01:14;;;;;;;0.50;0.50;;;;;;;14.90;70.98;97285.72;29396;235;63009;-65
2021/07/21 02:01:47;;;;;;;0.43;0.43;;;;;;;14.88;71.52;97288.75;29396;212;63004;-66
2021/07/21 02:02:23;;;;;;;0.50;0.50;;;;;;;14.86;71.08;97288.25;29395;232;64013;-63
2021/07/21 02:02:55;;;;;;;0.50;0.50;;;;;;;14.87;71.10;97292.59;29396;284;63017;-67
2021/07/21 02:03:29;;;;;;;0.50;0.50;;;;;;;14.88;71.02;97293.41;29396;197;63009;-64
2021/07/21 02:04:02;;;;;;;0.50;0.50;;;;;;;14.87;71.04;97286.31;29397;220;63005;-66
2021/07/21 02:04:36;;;;;;;0.50;0.50;;;;;;;14.85;71.58;97283.09;29397;237;63009;-67
2021/07/21 02:05:08;;;;;;;0.50;0.50;;;;;;;14.79;71.78;97285.16;29397;203;63010;-66
2021/07/21 02:05:40;;;;;;;0.90;0.90;;;;;;;14.79;71.65;97289.78;29397;208;63009;-67
2021/07/21 02:06:12;;;;;;;0.50;0.50;;;;;;;14.75;71.88;97290.41;29397;205;63007;-63
2021/07/21 02:06:45;;;;;;;0.50;0.50;;;;;;;14.70;71.81;97290.53;29397;238;63009;-66
2021/07/21 02:07:17;;;;;;;0.50;0.50;;;;;;;14.68;72.29;97283.75;29397;197;63004;-66
2021/07/21 02:07:51;;;;;;;0.60;0.60;;;;;;;14.64;72.37;97294.50;29396;205;64013;-66
2021/07/21 02:08:24;;;;;;;0.50;0.50;;;;;;;14.62;72.35;97285.81;29397;198;63004;-66
2021/07/21 02:08:57;;;;;;;0.50;0.50;;;;;;;14.62;71.81;97290.47;29397;232;63009;-63
2021/07/21 02:09:29;;;;;;;0.50;0.50;;;;;;;14.66;71.84;97286.81;29397;246;63004;-66
2021/07/21 02:10:05;;;;;;;0.50;0.50;;;;;;;14.68;71.56;97287.31;29397;218;63008;-66
2021/07/21 02:10:36;;;;;;;0.50;0.50;;;;;;;14.70;71.58;97293.25;29397;221;63005;-63
2021/07/21 02:11:07;;;;;;;0.50;0.50;;;;;;;14.70;71.53;97285.06;29397;198;63009;-66
2021/07/21 02:11:40;;;;;;;0.50;0.50;;;;;;;14.71;71.73;97289.41;29397;214;63005;-63
2021/07/21 02:12:11;;;;;;;0.50;0.50;;;;;;;14.70;72.17;97282.34;29397;200;63009;-67
2021/07/21 02:12:46;;;;;;;0.50;0.50;;;;;;;14.69;71.74;97279.91;29396;237;64009;-66
2021/07/21 02:13:19;;;;;;;0.52;0.52;;;;;;;14.70;71.66;97281.53;29397;246;63009;-67
2021/07/21 02:13:55;;;;;;;0.50;0.50;;;;;;;14.70;71.64;97276.06;29397;218;63005;-66
2021/07/21 02:14:26;;;;;;;0.43;0.43;;;;;;;14.71;71.93;97286.69;29397;221;63009;-66
2021/07/21 02:14:58;;;;;;;0.40;0.40;;;;;;;14.71;72.54;97283.94;29397;256;63004;-66
2021/07/21 02:15:30;;;;;;;0.40;0.40;;;;;;;14.69;72.01;97286.19;29397;235;63009;-65
2021/07/21 02:16:02;;;;;;;0.50;0.50;;;;;;;14.69;72.10;97279.91;29397;197;63004;-66
2021/07/21 02:16:37;;;;;;;0.50;0.50;;;;;;;14.69;71.81;97280.72;29397;199;63009;-66
2021/07/21 02:17:09;;;;;;;0.50;0.50;;;;;;;14.69;71.93;97283.44;29396;253;63004;-67
2021/07/21 02:17:42;;;;;;;0.50;0.50;;;;;;;14.70;72.17;97287.81;29396;225;64013;-66
2021/07/21 02:18:18;;;;;;;0.50;0.50;;;;;;;14.69;72.45;97280.72;29396;265;63005;-66
2021/07/21 02:18:56;;;;;;;0.50;0.50;;;;;;;14.69;71.95;97286.19;29396;258;63009;-66
2021/07/21 02:19:32;;;;;;;0.50;0.50;;;;;;;14.67;72.15;97282.94;29396;250;63005;-66
2021/07/21 02:20:06;;;;;;;0.50;0.50;;;;;;;14.65;72.13;97276.19;29396;243;63009;-67
2021/07/21 02:20:38;;;;;;;0.50;0.50;;;;;;;14.61;72.47;97281.44;29396;209;63005;-66
2021/07/21 02:21:12;;;;;;;0.68;0.68;;;;;;;14.61;72.08;97278.72;29396;386;63009;-66
2021/07/21 02:21:45;;;;;;;0.50;0.50;;;;;;;14.61;72.05;97286.91;29396;249;63011;-66
2021/07/21 02:22:18;;;;;;;0.40;0.40;;;;;;;14.61;71.91;97284.19;29396;241;63009;-66
2021/07/21 02:22:50;;;;;;;0.90;0.90;;;;;;;14.64;72.08;97277.31;29395;301;64009;-65
2021/07/21 02:23:27;;;;;;;0.50;0.50;;;;;;;14.65;71.69;97284.38;29396;224;63009;-66
2021/07/21 02:24:00;;;;;;;0.47;0.47;;;;;;;14.67;71.90;97282.16;29396;297;63004;-65
2021/07/21 02:24:32;;;;;;;0.50;0.50;;;;;;;14.67;71.97;97280.22;29396;208;63009;-66
2021/07/21 02:25:07;;;;;;;0.50;0.50;;;;;;;14.66;72.48;97284.06;29396;251;63004;-66
2021/07/21 02:25:39;;;;;;;0.45;0.45;;;;;;;14.66;72.32;97280.53;29396;232;63009;-66
2021/07/21 02:26:11;;;;;;;0.50;0.50;;;;;;;14.63;73.25;97284.69;29396;218;63005;-65
2021/07/21 02:26:42;;;;;;;0.50;0.50;;;;;;;14.59;73.19;97283.69;29396;234;63009;-66
2021/07/21 02:27:15;;;;;;;0.47;0.47;;;;;;;14.57;73.08;97277.72;29396;308;63005;-66
2021/07/21 02:27:46;;;;;;;0.50;0.50;;;;;;;14.55;73.42;97279.97;29395;222;64013;-67
2021/07/21 02:28:18;;;;;;;0.40;0.40;;;;;;;14.54;72.97;97286.56;29396;228;63005;-66
2021/07/21 02:28:50;;;;;;;0.50;0.50;;;;;;;14.52;73.08;97280.59;29396;244;63009;-66
2021/07/21 02:29:22;;;;;;;0.40;0.40;;;;;;;14.47;73.81;97277.19;29396;217;63005;-67
2021/07/21 02:29:54;;;;;;;0.73;0.73;;;;;;;14.44;73.21;97277.78;29396;240;63009;-65
2021/07/21 02:30:26;;;;;;;0.50;0.50;;;;;;;14.40;73.22;97283.03;29396;202;63004;-67
2021/07/21 02:31:02;;;;;;;0.70;0.70;;;;;;;14.37;73.80;97273.53;29396;218;63009;-66
2021/07/21 02:31:50;;;;;;;0.50;0.50;;;;;;;14.35;73.92;97280.41;29396;203;63004;-67
2021/07/21 02:32:31;;;;;;;0.50;0.50;;;;;;;14.35;73.30;97274.94;29396;328;63008;-66
2021/07/21 02:33:13;;;;;;;0.50;0.50;;;;;;;14.40;73.20;97283.03;29417;211;64009;-65
2021/07/21 02:33:51;;;;;;;0.40;0.40;;;;;;;14.42;73.14;97272.63;29396;216;63009;-66
2021/07/21 02:34:23;;;;;;;0.50;0.50;;;;;;;14.43;73.00;97285.16;29396;197;63005;-65
2021/07/21 02:34:54;;;;;;;0.50;0.50;;;;;;;14.44;72.92;97273.13;29396;222;63009;-67
2021/07/21 02:35:25;;;;;;;0.50;0.50;;;;;;;14.46;73.12;97281.81;29396;223;63005;-66
2021/07/21 02:35:57;;;;;;;0.50;0.50;;;;;;;14.46;73.06;97279.09;29396;207;63009;-66
2021/07/21 02:36:29;;;;;;;0.50;0.50;;;;;;;14.46;73.64;97281.81;29396;219;63004;-68
2021/07/21 02:37:03;;;;;;;0.50;0.50;;;;;;;14.45;73.71;97280.22;29396;202;63009;-64
2021/07/21 02:37:34;;;;;;;0.50;0.50;;;;;;;14.45;73.54;97285.66;29396;379;63004;-64
2021/07/21 02:38:06;;;;;;;0.50;0.50;;;;;;;14.43;73.56;97284.38;29395;225;64013;-65
2021/07/21 02:38:38;;;;;;;0.50;0.50;;;;;;;14.41;73.34;97284.66;29396;212;63004;-67
2021/07/21 02:39:10;;;;;;;0.50;0.50;;;;;;;14.40;73.28;97280.28;29396;212;63026;-66
2021/07/21 02:39:44;;;;;;;0.50;0.50;;;;;;;14.38;73.83;97282.53;29396;239;63004;-66
2021/07/21 02:40:17;;;;;;;0.50;0.50;;;;;;;14.38;73.66;97274.31;29396;266;63008;-65
2021/07/21 02:40:49;;;;;;;0.50;0.50;;;;;;;14.38;73.37;97277.06;29396;258;63005;-66
2021/07/21 02:41:20;;;;;;;0.50;0.50;;;;;;;14.38;73.33;97283.31;29396;219;63009;-66
2021/07/21 02:41:52;;;;;;;0.50;0.50;;;;;;;14.39;73.15;97278.69;29396;272;63005;-66
2021/07/21 02:42:24;;;;;;;0.65;0.65;;;;;;;14.42;73.11;97280.81;29396;281;63009;-66
2021/07/21 02:42:55;;;;;;;0.50;0.50;;;;;;;14.43;73.02;97285.16;29396;197;63005;-66
2021/07/21 02:43:27;;;;;;;0.45;0.45;;;;;;;14.44;73.42;97275.88;29395;207;64013;-66
2021/07/21 02:43:59;;;;;;;0.40;0.40;;;;;;;14.45;73.09;97274.75;29396;198;63004;-67
2021/07/21 02:44:30;;;;;;;0.50;0.50;;;;;;;14.48;72.88;97278.78;29396;216;63026;-68
2021/07/21 02:45:01;;;;;;;0.50;0.50;;;;;;;14.48;73.22;97274.13;29396;218;63004;-66
2021/07/21 02:45:35;;;;;;;0.50;0.50;;;;;;;14.48;72.67;97276.88;29396;235;63009;-66
2021/07/21 02:46:07;;;;;;;0.50;0.50;;;;;;;14.48;73.36;97268.69;29396;239;63015;-66
2021/07/21 02:46:38;;;;;;;0.50;0.50;;;;;;;14.47;73.64;97274.44;29396;222;63009;-67
2021/07/21 02:47:10;;;;;;;0.50;0.50;;;;;;;14.44;74.21;97272.31;29396;196;63004;-66
2021/07/21 02:47:42;;;;;;;0.50;0.50;;;;;;;14.42;73.77;97269.91;29396;229;63029;-66
2021/07/21 02:48:13;;;;;;;0.50;0.50;;;;;;;14.42;73.67;97275.38;29395;240;64009;-67
2021/07/21 02:48:46;;;;;;;0.50;0.50;;;;;;;14.41;73.62;97271.03;29396;203;63009;-66
2021/07/21 02:49:21;;;;;;;0.50;0.50;;;;;;;14.41;73.35;97277.28;29396;233;63005;-66